sensor_id;sensor_type;location;lat;lon;timestamp;pressure;altitude;pressure_sealevel;temperature;humidity
59987;BME280;46181;51.498;5.392;2023-07-20T00:03:28;101286.3;;;22.63;52.77441
59987;BME280;46181;51.498;5.392;2023-07-20T00:07:58;101289.8;;;22.54;52.78809
59987;BME280;46181;51.498;5.392;2023-07-20T00:12:28;101283.7;;;22.5;52.88672
59987;BME280;46181;51.498;5.392;2023-07-20T00:16:58;101283.6;;;22.46;52.89355
59987;BME280;46181;51.498;5.392;2023-07-20T00:21:29;101289.4;;;22.45;52.93945
59987;BME280;46181;51.498;5.392;2023-07-20T00:25:58;101296.1;;;22.44;53.08887
59987;BME280;46181;51.498;5.392;2023-07-20T00:30:28;101300.4;;;22.52;53.30566
59987;BME280;46181;51.498;5.392;2023-07-20T00:34:58;101290.9;;;22.61;53.27148
59987;BME280;46181;51.498;5.392;2023-07-20T00:39:28;101290.5;;;22.65;53.1123
59987;BME280;46181;51.498;5.392;2023-07-20T00:43:59;101291;;;22.6;53.07324
59987;BME280;46181;51.498;5.392;2023-07-20T00:48:28;101290.8;;;22.48;53.04785
59987;BME280;46181;51.498;5.392;2023-07-20T00:52:58;101294.5;;;22.39;53.10449
59987;BME280;46181;51.498;5.392;2023-07-20T00:57:28;101292.4;;;22.27;53.06934
59987;BME280;46181;51.498;5.392;2023-07-20T01:01:58;101288.7;;;22.15;53.08887
59987;BME280;46181;51.498;5.392;2023-07-20T01:06:34;101288.9;;;21.99;53.25488
59987;BME280;46181;51.498;5.392;2023-07-20T01:11:04;101288.8;;;21.93;53.40918
59987;BME280;46181;51.498;5.392;2023-07-20T01:15:29;101294.5;;;21.91;53.58105
59987;BME280;46181;51.498;5.392;2023-07-20T01:19:58;101294.5;;;21.9;53.56738
59987;BME280;46181;51.498;5.392;2023-07-20T01:24:51;101301.8;;;21.73;53.89453
59987;BME280;46181;51.498;5.392;2023-07-20T01:29:14;101304;;;21.65;53.9541
59987;BME280;46181;51.498;5.392;2023-07-20T01:33:28;101313.2;;;21.7;54.11133
59987;BME280;46181;51.498;5.392;2023-07-20T01:37:58;101305;;;21.83;54.1377
59987;BME280;46181;51.498;5.392;2023-07-20T01:42:28;101309.4;;;21.9;54.23926
59987;BME280;46181;51.498;5.392;2023-07-20T01:46:58;101311.1;;;22;54.25098
59987;BME280;46181;51.498;5.392;2023-07-20T01:51:28;101307.5;;;22.11;54.25195
59987;BME280;46181;51.498;5.392;2023-07-20T01:55:58;101305.8;;;22.17;54.16797
59987;BME280;46181;51.498;5.392;2023-07-20T02:00:28;101311.2;;;22.19;54.18164
59987;BME280;46181;51.498;5.392;2023-07-20T02:04:58;101313.3;;;22.25;54.27051
59987;BME280;46181;51.498;5.392;2023-07-20T02:09:28;101313.3;;;22.28;54.34277
59987;BME280;46181;51.498;5.392;2023-07-20T02:13:58;101317.7;;;22.35;54.38574
59987;BME280;46181;51.498;5.392;2023-07-20T02:18:28;101320.8;;;22.38;54.34375
59987;BME280;46181;51.498;5.392;2023-07-20T02:22:58;101323.4;;;22.42;54.41797
59987;BME280;46181;51.498;5.392;2023-07-20T02:27:28;101330.8;;;22.44;54.46582
59987;BME280;46181;51.498;5.392;2023-07-20T02:31:58;101330;;;22.47;54.64355
59987;BME280;46181;51.498;5.392;2023-07-20T02:36:28;101334;;;22.49;54.79785
59987;BME280;46181;51.498;5.392;2023-07-20T02:40:58;101339;;;22.5;54.91406
59987;BME280;46181;51.498;5.392;2023-07-20T02:45:28;101340.2;;;22.53;55.02148
59987;BME280;46181;51.498;5.392;2023-07-20T02:49:58;101335.9;;;22.53;55.11426
59987;BME280;46181;51.498;5.392;2023-07-20T02:54:28;101341.2;;;22.57;55.14258
59987;BME280;46181;51.498;5.392;2023-07-20T02:58:58;101348.6;;;22.57;55.18945
59987;BME280;46181;51.498;5.392;2023-07-20T03:03:28;101353.2;;;22.54;55.3125
59987;BME280;46181;51.498;5.392;2023-07-20T03:07:58;101358.4;;;22.54;55.33594
59987;BME280;46181;51.498;5.392;2023-07-20T03:12:28;101359.6;;;22.46;55.48828
59987;BME280;46181;51.498;5.392;2023-07-20T03:16:58;101368.5;;;22.46;55.56836
59987;BME280;46181;51.498;5.392;2023-07-20T03:21:28;101364;;;22.45;55.59082
59987;BME280;46181;51.498;5.392;2023-07-20T03:25:58;101371.8;;;22.41;55.53906
59987;BME280;46181;51.498;5.392;2023-07-20T03:30:28;101369.9;;;22.37;55.64941
59987;BME280;46181;51.498;5.392;2023-07-20T03:34:58;101373.8;;;22.26;55.47461
59987;BME280;46181;51.498;5.392;2023-07-20T03:39:28;101376.7;;;22.09;55.59277
59987;BME280;46181;51.498;5.392;2023-07-20T03:43:58;101382.6;;;21.98;55.80957
59987;BME280;46181;51.498;5.392;2023-07-20T03:48:29;101384;;;21.96;55.98047
59987;BME280;46181;51.498;5.392;2023-07-20T03:52:58;101383.2;;;21.99;56.04297
59987;BME280;46181;51.498;5.392;2023-07-20T03:57:28;101389.2;;;22;56.07813
59987;BME280;46181;51.498;5.392;2023-07-20T04:01:58;101392.2;;;21.98;56.02832
59987;BME280;46181;51.498;5.392;2023-07-20T04:06:28;101390.5;;;21.92;56.11426
59987;BME280;46181;51.498;5.392;2023-07-20T04:11:00;101396.5;;;21.95;56.17578
59987;BME280;46181;51.498;5.392;2023-07-20T04:15:28;101396.9;;;21.95;56.02539
59987;BME280;46181;51.498;5.392;2023-07-20T04:19:58;101395.5;;;22;55.8125
59987;BME280;46181;51.498;5.392;2023-07-20T04:24:28;101396.8;;;22.04;55.67969
59987;BME280;46181;51.498;5.392;2023-07-20T04:28:58;101396.6;;;22.03;55.49316
59987;BME280;46181;51.498;5.392;2023-07-20T04:33:28;101402;;;21.97;55.38086
59987;BME280;46181;51.498;5.392;2023-07-20T04:37:58;101404.7;;;21.95;55.27441
59987;BME280;46181;51.498;5.392;2023-07-20T04:42:28;101400.7;;;21.89;55.24414
59987;BME280;46181;51.498;5.392;2023-07-20T04:46:58;101404.4;;;21.87;55.41406
59987;BME280;46181;51.498;5.392;2023-07-20T04:51:28;101407.3;;;21.92;55.38574
59987;BME280;46181;51.498;5.392;2023-07-20T04:56:01;101403.3;;;21.99;55.51074
59987;BME280;46181;51.498;5.392;2023-07-20T05:00:29;101401.1;;;22.05;55.34375
59987;BME280;46181;51.498;5.392;2023-07-20T05:04:58;101391.2;;;22.13;55.22656
59987;BME280;46181;51.498;5.392;2023-07-20T05:09:28;101392;;;22.21;55.19043
59987;BME280;46181;51.498;5.392;2023-07-20T05:13:59;101394.7;;;22.29;55.08594
59987;BME280;46181;51.498;5.392;2023-07-20T05:18:28;101400;;;22.41;55.01855
59987;BME280;46181;51.498;5.392;2023-07-20T05:22:58;101406.7;;;22.52;54.95117
59987;BME280;46181;51.498;5.392;2023-07-20T05:27:28;101401.9;;;22.65;54.73535
59987;BME280;46181;51.498;5.392;2023-07-20T05:31:58;101410.1;;;22.92;54.7334
59987;BME280;46181;51.498;5.392;2023-07-20T05:36:28;101413.2;;;23.07;54.41602
59987;BME280;46181;51.498;5.392;2023-07-20T05:40:58;101411.6;;;23.19;53.65137
59987;BME280;46181;51.498;5.392;2023-07-20T05:45:28;101417.9;;;23.24;53.18359
59987;BME280;46181;51.498;5.392;2023-07-20T05:49:58;101424.8;;;23.34;53.00879
59987;BME280;46181;51.498;5.392;2023-07-20T05:54:28;101424.8;;;23.52;52.56641
59987;BME280;46181;51.498;5.392;2023-07-20T05:58:58;101427.2;;;23.78;52.25977
59987;BME280;46181;51.498;5.392;2023-07-20T06:03:28;101435.1;;;24.19;51.17871
59987;BME280;46181;51.498;5.392;2023-07-20T06:07:58;101428.3;;;24.36;49.96484
59987;BME280;46181;51.498;5.392;2023-07-20T06:12:28;101427.7;;;24.16;50.11621
59987;BME280;46181;51.498;5.392;2023-07-20T06:16:58;101426.8;;;24.23;50.40332
59987;BME280;46181;51.498;5.392;2023-07-20T06:21:28;101428.2;;;24.39;49.5957
59987;BME280;46181;51.498;5.392;2023-07-20T06:25:58;101442.3;;;24.47;49.77734
59987;BME280;46181;51.498;5.392;2023-07-20T06:30:28;101442.8;;;24.67;49.26563
59987;BME280;46181;51.498;5.392;2023-07-20T06:34:58;101443.8;;;24.73;48.13965
59987;BME280;46181;51.498;5.392;2023-07-20T06:39:28;101438.6;;;24.5;48.11621
59987;BME280;46181;51.498;5.392;2023-07-20T06:43:58;101435.7;;;24.27;48.27734
59987;BME280;46181;51.498;5.392;2023-07-20T06:48:28;101436.2;;;24.05;48.77734
59987;BME280;46181;51.498;5.392;2023-07-20T06:52:58;101435.7;;;23.96;48.88477
59987;BME280;46181;51.498;5.392;2023-07-20T06:57:28;101447.2;;;23.9;49.40039
59987;BME280;46181;51.498;5.392;2023-07-20T07:01:58;101452;;;24.19;49.68945
59987;BME280;46181;51.498;5.392;2023-07-20T07:06:28;101445.3;;;24.64;49.05176
59987;BME280;46181;51.498;5.392;2023-07-20T07:10:59;101445.5;;;25.09;47.88672
59987;BME280;46181;51.498;5.392;2023-07-20T07:15:28;101447.6;;;25.3;46.78809
59987;BME280;46181;51.498;5.392;2023-07-20T07:19:58;101456.2;;;25.36;46.43262
59987;BME280;46181;51.498;5.392;2023-07-20T07:24:28;101453.5;;;25.43;46.05469
59987;BME280;46181;51.498;5.392;2023-07-20T07:28:58;101452.9;;;25.58;45.71973
59987;BME280;46181;51.498;5.392;2023-07-20T07:33:28;101451.4;;;25.91;45.22559
59987;BME280;46181;51.498;5.392;2023-07-20T07:37:58;101458.5;;;26.34;44.09668
59987;BME280;46181;51.498;5.392;2023-07-20T07:42:28;101461;;;26.62;43.66797
59987;BME280;46181;51.498;5.392;2023-07-20T07:46:58;101460.6;;;26.85;42.73926
59987;BME280;46181;51.498;5.392;2023-07-20T07:51:28;101470.1;;;26.8;42.38281
59987;BME280;46181;51.498;5.392;2023-07-20T07:55:58;101476;;;26.64;41.33594
59987;BME280;46181;51.498;5.392;2023-07-20T08:00:29;101477.7;;;26.48;41.25098
59987;BME280;46181;51.498;5.392;2023-07-20T08:04:58;101477.9;;;26.35;40.91016
59987;BME280;46181;51.498;5.392;2023-07-20T08:09:28;101478.5;;;26.16;41.06836
59987;BME280;46181;51.498;5.392;2023-07-20T08:13:59;101478.2;;;26.18;41.62207
59987;BME280;46181;51.498;5.392;2023-07-20T08:18:28;101478.9;;;26.5;41.13477
59987;BME280;46181;51.498;5.392;2023-07-20T08:22:58;101482.8;;;26.88;40.79395
59987;BME280;46181;51.498;5.392;2023-07-20T08:27:28;101478.4;;;27.33;40.27051
59987;BME280;46181;51.498;5.392;2023-07-20T08:31:59;101472.8;;;27.77;39.41602
59987;BME280;46181;51.498;5.392;2023-07-20T08:36:28;101466.4;;;27.88;37.97656
59987;BME280;46181;51.498;5.392;2023-07-20T08:41:00;101473.1;;;28.1;37.51172
59987;BME280;46181;51.498;5.392;2023-07-20T08:45:29;101469;;;28.35;36.83691
59987;BME280;46181;51.498;5.392;2023-07-20T08:49:59;101467.5;;;28.21;37.16699
59987;BME280;46181;51.498;5.392;2023-07-20T08:54:29;101467;;;27.9;36.71777
59987;BME280;46181;51.498;5.392;2023-07-20T08:58:59;101472.5;;;27.52;37.16992
59987;BME280;46181;51.498;5.392;2023-07-20T09:03:28;101468.9;;;27.37;37.62891
59987;BME280;46181;51.498;5.392;2023-07-20T09:07:58;101466.4;;;27.48;37.57813
59987;BME280;46181;51.498;5.392;2023-07-20T09:12:28;101458.7;;;27.94;37.29883
59987;BME280;46181;51.498;5.392;2023-07-20T09:17:02;101458.4;;;28.32;36.05566
59987;BME280;46181;51.498;5.392;2023-07-20T09:21:31;101452.5;;;28.52;34.86816
59987;BME280;46181;51.498;5.392;2023-07-20T09:26:00;101449.2;;;28.6;34.37891
59987;BME280;46181;51.498;5.392;2023-07-20T09:30:33;101449.6;;;28.73;34.90723
59987;BME280;46181;51.498;5.392;2023-07-20T09:34:59;101445.1;;;29.33;34.38672
59987;BME280;46181;51.498;5.392;2023-07-20T09:39:29;101446.6;;;29.69;33.92871
59987;BME280;46181;51.498;5.392;2023-07-20T09:43:58;101445.5;;;29.71;33.5752
59987;BME280;46181;51.498;5.392;2023-07-20T09:48:32;101432.8;;;29.51;33.77344
59987;BME280;46181;51.498;5.392;2023-07-20T09:52:58;101447.4;;;28.99;33.55762
59987;BME280;46181;51.498;5.392;2023-07-20T09:57:30;101444.2;;;28.41;34.1875
59987;BME280;46181;51.498;5.392;2023-07-20T10:02:03;101437.1;;;27.97;35.02637
59987;BME280;46181;51.498;5.392;2023-07-20T10:06:32;101449.1;;;27.76;35.375
59987;BME280;46181;51.498;5.392;2023-07-20T10:10:59;101441.8;;;27.69;35.19336
59987;BME280;46181;51.498;5.392;2023-07-20T10:15:32;101436.4;;;27.85;35.5
59987;BME280;46181;51.498;5.392;2023-07-20T10:20:00;101438.7;;;28.2;34.96191
59987;BME280;46181;51.498;5.392;2023-07-20T10:24:29;101431.8;;;28.52;35.13965
59987;BME280;46181;51.498;5.392;2023-07-20T10:28:59;101429.5;;;28.83;34.30176
59987;BME280;46181;51.498;5.392;2023-07-20T10:33:29;101428.6;;;29.33;33.73535
59987;BME280;46181;51.498;5.392;2023-07-20T10:38:05;101425.7;;;29.46;33.14258
59987;BME280;46181;51.498;5.392;2023-07-20T10:42:31;101422.3;;;29.37;33.01758
59987;BME280;46181;51.498;5.392;2023-07-20T10:47:02;101413.1;;;29.19;32.34277
59987;BME280;46181;51.498;5.392;2023-07-20T10:51:38;101409.7;;;29.06;32.69922
59987;BME280;46181;51.498;5.392;2023-07-20T10:56:15;101405.7;;;29.08;32.68848
59987;BME280;46181;51.498;5.392;2023-07-20T11:00:29;101407.6;;;29.33;32.66016
59987;BME280;46181;51.498;5.392;2023-07-20T11:04:58;101404.1;;;29.49;32.33984
59987;BME280;46181;51.498;5.392;2023-07-20T11:09:33;101402.5;;;29.53;32.35352
59987;BME280;46181;51.498;5.392;2023-07-20T11:14:07;101402.8;;;29.45;32.01758
59987;BME280;46181;51.498;5.392;2023-07-20T11:18:29;101403.8;;;29.51;32.25879
59987;BME280;46181;51.498;5.392;2023-07-20T11:22:58;101402.7;;;29.53;32.33008
59987;BME280;46181;51.498;5.392;2023-07-20T11:27:29;101399.6;;;29.66;32.38672
59987;BME280;46181;51.498;5.392;2023-07-20T11:31:59;101394.3;;;29.89;32.30859
59987;BME280;46181;51.498;5.392;2023-07-20T11:36:28;101392.3;;;30.37;31.61914
59987;BME280;46181;51.498;5.392;2023-07-20T11:40:59;101391.3;;;30.57;30.99219
59987;BME280;46181;51.498;5.392;2023-07-20T11:45:29;101388;;;30.58;30.57715
59987;BME280;46181;51.498;5.392;2023-07-20T11:49:58;101384.6;;;30.52;31.02441
59987;BME280;46181;51.498;5.392;2023-07-20T11:54:29;101389.2;;;30.51;30.89355
59987;BME280;46181;51.498;5.392;2023-07-20T11:58:59;101388;;;30.45;31.26855
59987;BME280;46181;51.498;5.392;2023-07-20T12:03:29;101387.5;;;30.39;30.69531
59987;BME280;46181;51.498;5.392;2023-07-20T12:07:59;101380.5;;;30.39;31.2168
59987;BME280;46181;51.498;5.392;2023-07-20T12:12:29;101374;;;30.55;30.34961
59987;BME280;46181;51.498;5.392;2023-07-20T12:17:01;101369.5;;;30.79;29.87988
59987;BME280;46181;51.498;5.392;2023-07-20T12:21:28;101361.8;;;30.67;29.49121
59987;BME280;46181;51.498;5.392;2023-07-20T12:25:58;101375.7;;;30.3;29.92969
59987;BME280;46181;51.498;5.392;2023-07-20T12:30:29;101371.6;;;29.82;30.71582
59987;BME280;46181;51.498;5.392;2023-07-20T12:34:58;101368.8;;;29.59;31.30469
59987;BME280;46181;51.498;5.392;2023-07-20T12:39:28;101370.9;;;29.57;31.55176
59987;BME280;46181;51.498;5.392;2023-07-20T12:43:58;101369.9;;;29.61;31.75586
59987;BME280;46181;51.498;5.392;2023-07-20T12:48:28;101372.2;;;29.81;31.95996
59987;BME280;46181;51.498;5.392;2023-07-20T12:52:58;101369.1;;;30.12;31.59082
59987;BME280;46181;51.498;5.392;2023-07-20T12:57:28;101365.9;;;30.39;31.25293
59987;BME280;46181;51.498;5.392;2023-07-20T13:01:59;101362.7;;;30.36;31.06152
59987;BME280;46181;51.498;5.392;2023-07-20T13:06:28;101364.5;;;30.15;30.99902
59987;BME280;46181;51.498;5.392;2023-07-20T13:10:58;101361.1;;;29.92;31.28027
59987;BME280;46181;51.498;5.392;2023-07-20T13:15:32;101353.2;;;29.74;31.62305
59987;BME280;46181;51.498;5.392;2023-07-20T13:19:59;101351;;;29.81;31.81641
59987;BME280;46181;51.498;5.392;2023-07-20T13:24:29;101348.7;;;30.08;31.69434
59987;BME280;46181;51.498;5.392;2023-07-20T13:28:58;101345.9;;;30.37;31.02637
59987;BME280;46181;51.498;5.392;2023-07-20T13:33:29;101338.8;;;30.51;30.77441
59987;BME280;46181;51.498;5.392;2023-07-20T13:37:58;101330.5;;;30.64;30.70117
59987;BME280;46181;51.498;5.392;2023-07-20T13:42:29;101322.6;;;30.69;30.90527
59987;BME280;46181;51.498;5.392;2023-07-20T13:46:59;101324.7;;;30.88;30.27637
59987;BME280;46181;51.498;5.392;2023-07-20T13:51:29;101321.3;;;31.12;30.07813
59987;BME280;46181;51.498;5.392;2023-07-20T13:55:59;101318.6;;;31.38;29.29883
59987;BME280;46181;51.498;5.392;2023-07-20T14:00:29;101320;;;31.58;28.78809
59987;BME280;46181;51.498;5.392;2023-07-20T14:04:59;101311.5;;;31.74;28.63086
59987;BME280;46181;51.498;5.392;2023-07-20T14:09:29;101299.5;;;31.92;28.17871
59987;BME280;46181;51.498;5.392;2023-07-20T14:13:59;101296;;;31.84;28.125
59987;BME280;46181;51.498;5.392;2023-07-20T14:18:29;101293.5;;;31.65;27.89941
59987;BME280;46181;51.498;5.392;2023-07-20T14:22:59;101283.8;;;31.54;28.26172
59987;BME280;46181;51.498;5.392;2023-07-20T14:27:29;101278.8;;;31.57;28.7041
59987;BME280;46181;51.498;5.392;2023-07-20T14:31:58;101276;;;31.57;28.07227
59987;BME280;46181;51.498;5.392;2023-07-20T14:36:29;101277.2;;;31.72;28.03516
59987;BME280;46181;51.498;5.392;2023-07-20T14:40:59;101272.5;;;31.76;27.73926
59987;BME280;46181;51.498;5.392;2023-07-20T14:45:29;101278.6;;;31.51;27.43848
59987;BME280;46181;51.498;5.392;2023-07-20T14:49:59;101274.5;;;31.26;28.29199
59987;BME280;46181;51.498;5.392;2023-07-20T14:54:30;101273.4;;;30.91;27.53223
59987;BME280;46181;51.498;5.392;2023-07-20T14:58:59;101273.9;;;30.53;28.58008
59987;BME280;46181;51.498;5.392;2023-07-20T15:03:29;101279.5;;;30.23;29.26074
59987;BME280;46181;51.498;5.392;2023-07-20T15:07:59;101275.8;;;29.95;29.8125
59987;BME280;46181;51.498;5.392;2023-07-20T15:12:29;101277.9;;;29.67;30.23242
59987;BME280;46181;51.498;5.392;2023-07-20T15:16:59;101269.1;;;29.44;30.61914
59987;BME280;46181;51.498;5.392;2023-07-20T15:21:29;101272.9;;;29.31;30.81152
59987;BME280;46181;51.498;5.392;2023-07-20T15:25:59;101267.3;;;29.19;31.26563
59987;BME280;46181;51.498;5.392;2023-07-20T15:30:29;101262;;;29.15;31.13281
59987;BME280;46181;51.498;5.392;2023-07-20T15:34:59;101256.5;;;29;31.15723
59987;BME280;46181;51.498;5.392;2023-07-20T15:39:29;101251.8;;;28.84;31.62012
59987;BME280;46181;51.498;5.392;2023-07-20T15:43:59;101247.9;;;28.86;31.79785
59987;BME280;46181;51.498;5.392;2023-07-20T15:48:29;101237.9;;;28.89;31.75293
59987;BME280;46181;51.498;5.392;2023-07-20T15:52:59;101235.9;;;28.94;31.73242
59987;BME280;46181;51.498;5.392;2023-07-20T15:57:29;101241.3;;;29.01;31.25195
59987;BME280;46181;51.498;5.392;2023-07-20T16:01:59;101239.6;;;29;31.42969
59987;BME280;46181;51.498;5.392;2023-07-20T16:06:29;101239.6;;;29;31.59473
59987;BME280;46181;51.498;5.392;2023-07-20T16:11:00;101236.5;;;28.99;31.57031
59987;BME280;46181;51.498;5.392;2023-07-20T16:15:29;101230;;;28.96;31.83984
59987;BME280;46181;51.498;5.392;2023-07-20T16:19:59;101228.8;;;28.92;31.81445
59987;BME280;46181;51.498;5.392;2023-07-20T16:24:29;101223.6;;;28.86;32.10547
59987;BME280;46181;51.498;5.392;2023-07-20T16:28:59;101221.7;;;28.77;32.27637
59987;BME280;46181;51.498;5.392;2023-07-20T16:33:29;101219.7;;;28.63;32.56152
59987;BME280;46181;51.498;5.392;2023-07-20T16:37:59;101216.9;;;28.54;32.69727
59987;BME280;46181;51.498;5.392;2023-07-20T16:42:29;101210.9;;;28.43;32.55957
59987;BME280;46181;51.498;5.392;2023-07-20T16:46:59;101212.2;;;28.32;32.72852
59987;BME280;46181;51.498;5.392;2023-07-20T16:51:29;101214;;;28.22;32.75684
59987;BME280;46181;51.498;5.392;2023-07-20T16:56:02;101214.8;;;28.1;32.90137
59987;BME280;46181;51.498;5.392;2023-07-20T17:00:29;101207.5;;;28.04;32.7793
59987;BME280;46181;51.498;5.392;2023-07-20T17:05:00;101220.1;;;27.95;33.23242
59987;BME280;46181;51.498;5.392;2023-07-20T17:09:29;101227.5;;;27.77;34.22168
59987;BME280;46181;51.498;5.392;2023-07-20T17:13:59;101230.8;;;27.41;35.04199
59987;BME280;46181;51.498;5.392;2023-07-20T17:18:29;101237.7;;;27.11;35.67773
59987;BME280;46181;51.498;5.392;2023-07-20T17:22:59;101239.9;;;26.83;36.54883
59987;BME280;46181;51.498;5.392;2023-07-20T17:27:29;101233.7;;;26.64;36.96777
59987;BME280;46181;51.498;5.392;2023-07-20T17:31:59;101231.9;;;26.44;37.35156
59987;BME280;46181;51.498;5.392;2023-07-20T17:36:29;101230.8;;;26.33;37.5293
59987;BME280;46181;51.498;5.392;2023-07-20T17:40:59;101227.3;;;26.28;37.34961
59987;BME280;46181;51.498;5.392;2023-07-20T17:45:29;101231.3;;;26.18;37.36523
59987;BME280;46181;51.498;5.392;2023-07-20T17:49:59;101223.5;;;26.12;37.28906
59987;BME280;46181;51.498;5.392;2023-07-20T17:54:29;101223.9;;;26.04;37.41113
59987;BME280;46181;51.498;5.392;2023-07-20T17:58:59;101226.7;;;25.99;37.57227
59987;BME280;46181;51.498;5.392;2023-07-20T18:03:29;101223.2;;;25.97;37.40625
59987;BME280;46181;51.498;5.392;2023-07-20T18:07:59;101221;;;25.92;37.35449
59987;BME280;46181;51.498;5.392;2023-07-20T18:12:29;101226.7;;;25.9;37.35352
59987;BME280;46181;51.498;5.392;2023-07-20T18:16:59;101231.9;;;25.9;37.38867
59987;BME280;46181;51.498;5.392;2023-07-20T18:21:29;101233;;;25.93;37.33203
59987;BME280;46181;51.498;5.392;2023-07-20T18:25:59;101227.6;;;25.95;37.38086
59987;BME280;46181;51.498;5.392;2023-07-20T18:30:29;101229.7;;;25.94;37.33398
59987;BME280;46181;51.498;5.392;2023-07-20T18:34:59;101231.5;;;25.89;37.29395
59987;BME280;46181;51.498;5.392;2023-07-20T18:39:29;101225;;;25.9;37.75195
59987;BME280;46181;51.498;5.392;2023-07-20T18:43:59;101216.7;;;25.91;38.11621
59987;BME280;46181;51.498;5.392;2023-07-20T18:48:29;101222;;;25.81;38.01367
59987;BME280;46181;51.498;5.392;2023-07-20T18:52:59;101214.7;;;25.68;38.27246
59987;BME280;46181;51.498;5.392;2023-07-20T18:57:29;101210.8;;;25.67;37.9668
59987;BME280;46181;51.498;5.392;2023-07-20T19:01:59;101206.9;;;25.61;37.71582
59987;BME280;46181;51.498;5.392;2023-07-20T19:06:29;101210.5;;;25.58;37.5957
59987;BME280;46181;51.498;5.392;2023-07-20T19:11:02;101200;;;25.57;37.53711
59987;BME280;46181;51.498;5.392;2023-07-20T19:15:29;101199.1;;;25.57;37.60742
59987;BME280;46181;51.498;5.392;2023-07-20T19:19:59;101196.4;;;25.54;37.5459
59987;BME280;46181;51.498;5.392;2023-07-20T19:24:29;101196.8;;;25.53;37.69727
59987;BME280;46181;51.498;5.392;2023-07-20T19:28:59;101193.5;;;25.45;37.72559
59987;BME280;46181;51.498;5.392;2023-07-20T19:33:29;101199;;;25.38;37.69629
59987;BME280;46181;51.498;5.392;2023-07-20T19:37:59;101199;;;25.33;37.83203
59987;BME280;46181;51.498;5.392;2023-07-20T19:42:29;101197.8;;;25.22;37.97656
59987;BME280;46181;51.498;5.392;2023-07-20T19:46:59;101198.6;;;25.16;37.99414
59987;BME280;46181;51.498;5.392;2023-07-20T19:51:29;101198.9;;;25.09;38.28125
59987;BME280;46181;51.498;5.392;2023-07-20T19:56:04;101200.2;;;24.98;38.56348
59987;BME280;46181;51.498;5.392;2023-07-20T20:00:29;101203.6;;;24.91;38.83887
59987;BME280;46181;51.498;5.392;2023-07-20T20:04:59;101211.3;;;24.81;39.01758
59987;BME280;46181;51.498;5.392;2023-07-20T20:09:29;101212.3;;;24.66;39.28516
59987;BME280;46181;51.498;5.392;2023-07-20T20:13:59;101219.3;;;24.53;39.6709
59987;BME280;46181;51.498;5.392;2023-07-20T20:18:29;101215.6;;;24.41;40.00977
59987;BME280;46181;51.498;5.392;2023-07-20T20:22:59;101219.1;;;24.26;40.44043
59987;BME280;46181;51.498;5.392;2023-07-20T20:27:29;101214.4;;;24.1;40.75293
59987;BME280;46181;51.498;5.392;2023-07-20T20:31:59;101211.2;;;23.95;41.25195
59987;BME280;46181;51.498;5.392;2023-07-20T20:36:29;101212.3;;;23.82;41.66016
59987;BME280;46181;51.498;5.392;2023-07-20T20:41:00;101216.4;;;23.71;41.96387
59987;BME280;46181;51.498;5.392;2023-07-20T20:45:29;101216.3;;;23.63;42.20313
59987;BME280;46181;51.498;5.392;2023-07-20T20:50:00;101218.2;;;23.55;42.48535
59987;BME280;46181;51.498;5.392;2023-07-20T20:54:29;101211.5;;;23.43;42.69629
59987;BME280;46181;51.498;5.392;2023-07-20T20:58:59;101208.1;;;23.28;42.92578
59987;BME280;46181;51.498;5.392;2023-07-20T21:03:30;101199.6;;;23.15;43.2041
59987;BME280;46181;51.498;5.392;2023-07-20T21:07:59;101195.8;;;23.07;43.34766
59987;BME280;46181;51.498;5.392;2023-07-20T21:12:29;101198.3;;;22.99;43.49121
59987;BME280;46181;51.498;5.392;2023-07-20T21:16:59;101192.4;;;22.87;43.82813
59987;BME280;46181;51.498;5.392;2023-07-20T21:21:29;101191.8;;;22.79;43.9834
59987;BME280;46181;51.498;5.392;2023-07-20T21:25:59;101184.4;;;22.71;44.12695
59987;BME280;46181;51.498;5.392;2023-07-20T21:30:29;101187.1;;;22.62;44.25684
59987;BME280;46181;51.498;5.392;2023-07-20T21:34:59;101186.7;;;22.54;44.49219
59987;BME280;46181;51.498;5.392;2023-07-20T21:39:29;101184.4;;;22.45;44.70508
59987;BME280;46181;51.498;5.392;2023-07-20T21:43:59;101180.7;;;22.34;44.93652
59987;BME280;46181;51.498;5.392;2023-07-20T21:48:29;101178.2;;;22.25;45.1377
59987;BME280;46181;51.498;5.392;2023-07-20T21:52:59;101176.2;;;22.17;45.29199
59987;BME280;46181;51.498;5.392;2023-07-20T21:57:29;101174.5;;;22.08;45.50195
59987;BME280;46181;51.498;5.392;2023-07-20T22:01:59;101176.3;;;21.99;45.74902
59987;BME280;46181;51.498;5.392;2023-07-20T22:06:29;101174;;;21.92;45.83398
59987;BME280;46181;51.498;5.392;2023-07-20T22:11:02;101175.8;;;21.82;46.10254
59987;BME280;46181;51.498;5.392;2023-07-20T22:15:29;101174.6;;;21.73;46.41895
59987;BME280;46181;51.498;5.392;2023-07-20T22:19:59;101172.1;;;21.64;46.59375
59987;BME280;46181;51.498;5.392;2023-07-20T22:24:29;101176;;;21.57;46.94434
59987;BME280;46181;51.498;5.392;2023-07-20T22:28:59;101172.6;;;21.49;47.13379
59987;BME280;46181;51.498;5.392;2023-07-20T22:33:29;101173.5;;;21.42;47.1377
59987;BME280;46181;51.498;5.392;2023-07-20T22:37:59;101175.9;;;21.34;47.30273
59987;BME280;46181;51.498;5.392;2023-07-20T22:42:29;101171.2;;;21.25;47.65234
59987;BME280;46181;51.498;5.392;2023-07-20T22:46:59;101177.4;;;21.19;47.93555
59987;BME280;46181;51.498;5.392;2023-07-20T22:51:29;101170.8;;;21.14;48.12695
59987;BME280;46181;51.498;5.392;2023-07-20T22:55:59;101173.9;;;21.09;48.21387
59987;BME280;46181;51.498;5.392;2023-07-20T23:00:30;101174.7;;;21.05;48.17383
59987;BME280;46181;51.498;5.392;2023-07-20T23:04:59;101173.1;;;21.02;48.30957